createdAt,value
2023-05-14T00:00:04.162Z,101538.23
2023-05-14T00:01:09.545Z,101532.79
2023-05-14T00:02:14.959Z,101540.43
2023-05-14T00:03:20.557Z,101531.52
2023-05-14T00:04:26.190Z,101530.59
2023-05-14T00:05:31.642Z,101528.89
2023-05-14T00:06:36.982Z,101533.43
2023-05-14T00:07:42.333Z,101528.13
2023-05-14T00:08:47.674Z,101525.8
2023-05-14T00:09:53.013Z,101530.75
2023-05-14T00:10:58.645Z,101530.81
2023-05-14T00:12:03.987Z,101529.89
2023-05-14T00:13:09.288Z,101525.86
2023-05-14T00:14:14.612Z,101530.88
2023-05-14T00:15:20.954Z,101529.98
2023-05-14T00:16:26.458Z,101524.61
2023-05-14T00:17:32.095Z,101531.58
2023-05-14T00:18:37.489Z,101529.13
2023-05-14T00:19:42.912Z,101529.53
2023-05-14T00:20:48.274Z,101531.39
2023-05-14T00:21:53.599Z,101528.77
2023-05-14T00:22:58.999Z,101531.52
2023-05-14T00:24:04.340Z,101526.25
2023-05-14T00:25:09.711Z,101528.48
2023-05-14T00:26:15.065Z,101530.18
2023-05-14T00:27:23.370Z,101527.84
2023-05-14T00:28:28.740Z,101525.67
2023-05-14T00:29:34.076Z,101526.16
2023-05-14T00:30:39.430Z,101519.95
2023-05-14T00:31:45.082Z,101521.02
2023-05-14T00:32:50.749Z,101520.53
2023-05-14T00:33:56.247Z,101514.16
2023-05-14T00:35:01.570Z,101521.23
2023-05-14T00:36:06.905Z,101520.3
2023-05-14T00:37:12.271Z,101521.3
2023-05-14T00:38:17.614Z,101528.48
2023-05-14T00:39:22.983Z,101519.53
2023-05-14T00:40:28.393Z,101520.58
2023-05-14T00:41:33.740Z,101516.27
2023-05-14T00:42:39.081Z,101515.34
2023-05-14T00:43:44.461Z,101514
2023-05-14T00:44:49.846Z,101509.05
2023-05-14T00:45:55.203Z,101517.55
2023-05-14T00:47:00.781Z,101518.09
2023-05-14T00:48:06.507Z,101505.53
2023-05-14T00:49:11.981Z,101507.36
2023-05-14T00:50:17.394Z,101504.32
2023-05-14T00:51:22.728Z,101511.61
2023-05-14T00:52:28.109Z,101502.22
2023-05-14T00:53:33.448Z,101511.89
2023-05-14T00:54:38.792Z,101504.32
2023-05-14T00:55:44.168Z,101506.11
2023-05-14T00:56:49.507Z,101504.84
2023-05-14T00:57:54.837Z,101508.93
2023-05-14T00:59:00.167Z,101509.44
2023-05-14T01:00:05.614Z,101512.95
2023-05-14T01:01:11.055Z,101505.83
2023-05-14T01:02:16.495Z,101514.81
2023-05-14T01:03:21.984Z,101509.44
2023-05-14T01:04:27.592Z,101510.34
2023-05-14T01:05:32.938Z,101505.41
2023-05-14T01:06:38.332Z,101510.84
2023-05-14T01:07:43.642Z,101503.2
2023-05-14T01:08:49.015Z,101510.43
2023-05-14T01:09:54.327Z,101506.47
2023-05-14T01:10:59.669Z,101498
2023-05-14T01:12:05.026Z,101510.15
2023-05-14T01:13:10.351Z,101500.75
2023-05-14T01:14:15.707Z,101498.48
2023-05-14T01:15:24.041Z,101497.55
2023-05-14T01:16:29.481Z,101494.52
2023-05-14T01:17:35.033Z,101497.55
2023-05-14T01:18:40.524Z,101496.72
2023-05-14T01:19:45.938Z,101499.69
2023-05-14T01:20:51.289Z,101496.91
2023-05-14T01:21:56.631Z,101492.53
2023-05-14T01:23:01.977Z,101494.8
2023-05-14T01:24:07.292Z,101493.11
2023-05-14T01:25:12.651Z,101492.98
2023-05-14T01:26:17.997Z,101488.61
2023-05-14T01:27:23.326Z,101490.42
2023-05-14T01:28:28.657Z,101489.78
2023-05-14T01:29:34.037Z,101486.27
2023-05-14T01:30:39.406Z,101487.27
2023-05-14T01:31:44.834Z,101484.99
2023-05-14T01:32:50.344Z,101485.47
2023-05-14T01:33:55.852Z,101486.34
2023-05-14T01:35:01.188Z,101484.83
2023-05-14T01:36:06.487Z,101480.97
2023-05-14T01:37:11.806Z,101482.38
2023-05-14T01:38:17.142Z,101482.79
2023-05-14T01:39:22.558Z,101481.03
2023-05-14T01:40:28.031Z,101478.41
2023-05-14T01:41:33.644Z,101474.9
2023-05-14T01:42:38.968Z,101478.34
2023-05-14T01:43:44.339Z,101475.66
2023-05-14T01:44:49.668Z,101480.1
2023-05-14T01:45:55.091Z,101480.55
2023-05-14T01:47:00.595Z,101478.28
2023-05-14T01:48:06.051Z,101477.28
2023-05-14T01:49:11.466Z,101473.26
2023-05-14T01:50:16.786Z,101474.25
2023-05-14T01:51:22.126Z,101478.34
2023-05-14T01:52:27.450Z,101472.98
2023-05-14T01:53:32.774Z,101472.98
2023-05-14T01:54:38.147Z,101474.31
2023-05-14T01:55:43.528Z,101472.5
2023-05-14T01:56:48.873Z,101474.31
2023-05-14T01:57:54.260Z,101470.29
2023-05-14T01:58:59.586Z,101472.5
2023-05-14T02:00:04.969Z,101474.73
2023-05-14T02:01:10.414Z,101470.29
2023-05-14T02:02:15.836Z,101466.2
2023-05-14T02:03:21.180Z,101476.59
2023-05-14T02:04:26.644Z,101475.25
2023-05-14T02:05:32.034Z,101474.31
2023-05-14T02:06:37.396Z,101471.28
2023-05-14T02:07:42.749Z,101476.17
2023-05-14T02:08:48.104Z,101466.2
2023-05-14T02:09:53.459Z,101471.05
2023-05-14T02:10:58.853Z,101467.19
2023-05-14T02:12:04.181Z,101470.8
2023-05-14T02:13:09.520Z,101472.98
2023-05-14T02:14:14.830Z,101475.25
2023-05-14T02:15:20.176Z,101465.84
2023-05-14T02:16:25.659Z,101469.53
2023-05-14T02:17:31.241Z,101463.16
2023-05-14T02:18:36.804Z,101465.91
2023-05-14T02:19:42.179Z,101474.38
2023-05-14T02:20:47.533Z,101466.77
2023-05-14T02:21:52.897Z,101459.72
2023-05-14T02:22:58.235Z,101464.32
2023-05-14T02:24:03.581Z,101464.64
2023-05-14T02:25:08.927Z,101455.82
2023-05-14T02:26:14.338Z,101458.95
2023-05-14T02:27:19.723Z,101456.27
2023-05-14T02:28:25.094Z,101462.05
2023-05-14T02:29:30.446Z,101459.78
2023-05-14T02:30:35.748Z,101459.72
2023-05-14T02:31:41.158Z,101460.2
2023-05-14T02:32:46.722Z,101454.77
2023-05-14T02:33:52.190Z,101455.59
2023-05-14T02:34:57.529Z,101458.79
2023-05-14T02:36:02.872Z,101449.88
2023-05-14T02:37:08.238Z,101450.9
2023-05-14T02:38:13.589Z,101454.83
2023-05-14T02:39:18.954Z,101452.3
2023-05-14T02:40:24.820Z,101461.54
2023-05-14T02:41:30.439Z,101461.19
2023-05-14T02:42:35.819Z,101454
2023-05-14T02:43:41.180Z,101451.31
2023-05-14T02:44:46.518Z,101456.27
2023-05-14T02:45:51.838Z,101454.92
2023-05-14T02:46:57.249Z,101454.48
2023-05-14T02:48:02.771Z,101460.13
2023-05-14T02:49:08.204Z,101455.69
2023-05-14T02:50:13.517Z,101455.24
2023-05-14T02:51:18.834Z,101452.24
2023-05-14T02:52:24.226Z,101450.55
2023-05-14T02:53:29.654Z,101456.68
2023-05-14T02:54:34.986Z,101454.58
2023-05-14T02:55:40.302Z,101458.44
2023-05-14T02:56:45.631Z,101453.06
2023-05-14T02:57:50.960Z,101451.8
2023-05-14T02:58:56.809Z,101451.31
2023-05-14T03:00:03.339Z,101458.5
2023-05-14T03:01:09.675Z,101452.72
2023-05-14T03:02:16.566Z,101456.33
2023-05-14T03:03:23.132Z,101456.75
2023-05-14T03:04:32.712Z,101451.8
2023-05-14T03:05:38.060Z,101454.06
2023-05-14T03:06:43.398Z,101451.89
2023-05-14T03:07:48.763Z,101446.94
2023-05-14T03:08:54.140Z,101448.76
2023-05-14T03:09:59.503Z,101453.58
2023-05-14T03:11:04.902Z,101446.01
2023-05-14T03:12:10.228Z,101450.1
2023-05-14T03:13:15.561Z,101450.1
2023-05-14T03:14:20.900Z,101453.65
2023-05-14T03:15:26.269Z,101451.03
2023-05-14T03:16:31.661Z,101454.13
2023-05-14T03:17:37.110Z,101458.02
2023-05-14T03:18:42.620Z,101458.5
2023-05-14T03:19:48.036Z,101459.02
2023-05-14T03:20:53.384Z,101465.31
2023-05-14T03:21:58.722Z,101457.27
2023-05-14T03:23:04.056Z,101462.88
2023-05-14T03:24:09.582Z,101456.33
2023-05-14T03:25:14.950Z,101455.92
2023-05-14T03:26:20.297Z,101454.06
2023-05-14T03:27:25.665Z,101458.95
2023-05-14T03:28:31.002Z,101453.14
2023-05-14T03:29:39.463Z,101448.76
2023-05-14T03:30:44.868Z,101456.81
2023-05-14T03:31:50.348Z,101452.78
2023-05-14T03:32:55.720Z,101454.58
2023-05-14T03:34:01.109Z,101453.3
2023-05-14T03:35:06.438Z,101455.82
2023-05-14T03:36:11.787Z,101448.28
2023-05-14T03:37:17.196Z,101454.41
2023-05-14T03:38:22.513Z,101453.14
2023-05-14T03:39:27.830Z,101454.48
2023-05-14T03:40:33.153Z,101457.16
2023-05-14T03:41:39.481Z,101450.96
2023-05-14T03:42:44.830Z,101450.1
2023-05-14T03:43:50.209Z,101456.81
2023-05-14T03:44:55.565Z,101452.89
2023-05-14T03:46:00.926Z,101460.01
2023-05-14T03:47:06.277Z,101456.47
2023-05-14T03:48:11.769Z,101452.24
2023-05-14T03:49:17.296Z,101455.98
2023-05-14T03:50:26.065Z,101455.41
2023-05-14T03:51:31.473Z,101451.03
2023-05-14T03:52:36.796Z,101457.67
2023-05-14T03:53:42.118Z,101455.41
2023-05-14T03:54:47.501Z,101454.92
2023-05-14T03:55:52.865Z,101454.06
2023-05-14T03:56:58.187Z,101451.03
2023-05-14T03:58:03.604Z,101448
2023-05-14T03:59:08.917Z,101450.68
2023-05-14T04:00:14.307Z,101451.95
2023-05-14T04:01:19.674Z,101451.09
2023-05-14T04:02:25.182Z,101454.48
2023-05-14T04:03:31.116Z,101448.69
2023-05-14T04:04:37.022Z,101449.27
2023-05-14T04:05:42.500Z,101441.22
2023-05-14T04:06:47.909Z,101450.68
2023-05-14T04:07:53.269Z,101444.48
2023-05-14T04:08:58.632Z,101440.36
2023-05-14T04:10:05.884Z,101444.38
2023-05-14T04:11:11.215Z,101445.59
2023-05-14T04:12:16.567Z,101444.32
2023-05-14T04:13:21.922Z,101440.8
2023-05-14T04:14:27.303Z,101437.25
2023-05-14T04:15:32.669Z,101441.35
2023-05-14T04:16:38.098Z,101438.77
2023-05-14T04:17:43.691Z,101442.28
2023-05-14T04:18:49.165Z,101445.89
2023-05-14T04:19:54.619Z,101441.93
2023-05-14T04:21:00.010Z,101439.76
2023-05-14T04:22:05.338Z,101444.61
2023-05-14T04:23:10.713Z,101443.55
2023-05-14T04:24:16.049Z,101439.59
2023-05-14T04:25:21.486Z,101442.79
2023-05-14T04:26:26.873Z,101449.56
2023-05-14T04:27:32.229Z,101437.14
2023-05-14T04:28:37.545Z,101435.73
2023-05-14T04:29:42.982Z,101439.83
2023-05-14T04:30:48.329Z,101433.05
2023-05-14T04:31:54.067Z,101440.59
2023-05-14T04:32:59.473Z,101445.89
2023-05-14T04:34:04.810Z,101443.78
2023-05-14T04:35:10.157Z,101435.73
2023-05-14T04:36:15.518Z,101442.86
2023-05-14T04:37:20.849Z,101443.27
2023-05-14T04:38:26.174Z,101436.49
2023-05-14T04:39:31.481Z,101442.7
2023-05-14T04:40:36.874Z,101437.97
2023-05-14T04:41:42.217Z,101439.24
2023-05-14T04:42:47.529Z,101444.2
2023-05-14T04:43:53.230Z,101444.61
2023-05-14T04:44:58.555Z,101443.27
2023-05-14T04:46:04.029Z,101440.52
2023-05-14T04:47:09.431Z,101444.03
2023-05-14T04:48:14.812Z,101442.7
2023-05-14T04:49:20.156Z,101442.21
2023-05-14T04:50:25.925Z,101442.49
2023-05-14T04:51:31.429Z,101440.8
2023-05-14T04:52:36.774Z,101446.3
2023-05-14T04:53:42.134Z,101440.52
2023-05-14T04:54:47.543Z,101444.97
2023-05-14T04:55:53.021Z,101448.06
2023-05-14T04:56:58.394Z,101437.48
2023-05-14T04:58:03.735Z,101442.79
2023-05-14T04:59:09.105Z,101438.83
2023-05-14T05:00:14.441Z,101442.79
2023-05-14T05:01:19.989Z,101444.32
2023-05-14T05:02:25.410Z,101432.41
2023-05-14T05:03:31.031Z,101446.23
2023-05-14T05:04:36.469Z,101439.94
2023-05-14T05:05:41.780Z,101438.59
2023-05-14T05:06:47.115Z,101441.93
2023-05-14T05:07:52.422Z,101438.48
2023-05-14T05:08:58.040Z,101439.83
2023-05-14T05:10:06.140Z,101436.15
2023-05-14T05:11:11.508Z,101436.91
2023-05-14T05:12:16.860Z,101439.24
2023-05-14T05:13:22.199Z,101437.48
2023-05-14T05:14:27.562Z,101441.52
2023-05-14T05:15:32.925Z,101437.2
2023-05-14T05:16:38.357Z,101434.04
2023-05-14T05:17:43.772Z,101439.41
2023-05-14T05:18:49.268Z,101438.9
2023-05-14T05:19:54.627Z,101430.5
2023-05-14T05:20:59.976Z,101432.34
2023-05-14T05:22:05.377Z,101442.58
2023-05-14T05:23:10.843Z,101439.41
2023-05-14T05:24:18.649Z,101435.86
2023-05-14T05:25:23.996Z,101437.14
2023-05-14T05:26:29.332Z,101435.22
2023-05-14T05:27:34.687Z,101430.84
2023-05-14T05:28:40.034Z,101436.49
2023-05-14T05:29:45.384Z,101436.08
2023-05-14T05:30:50.714Z,101433.39
2023-05-14T05:31:56.258Z,101431.26
2023-05-14T05:33:01.774Z,101427.58
2023-05-14T05:34:07.646Z,101430.7
2023-05-14T05:35:12.981Z,101423.48
2023-05-14T05:36:18.369Z,101427.92
2023-05-14T05:37:23.741Z,101427.16
2023-05-14T05:38:29.100Z,101429.44
2023-05-14T05:39:34.419Z,101425.41
2023-05-14T05:40:39.807Z,101423.55
2023-05-14T05:41:45.182Z,101424.48
2023-05-14T05:42:50.489Z,101421.56
2023-05-14T05:43:55.806Z,101424.95
2023-05-14T05:45:01.111Z,101427.05
2023-05-14T05:46:06.599Z,101426.16
2023-05-14T05:47:12.067Z,101417.66
2023-05-14T05:48:17.447Z,101427.05
2023-05-14T05:49:22.807Z,101419
2023-05-14T05:50:28.216Z,101423.95
2023-05-14T05:51:33.594Z,101422.54
2023-05-14T05:52:38.992Z,101421.61
2023-05-14T05:53:44.310Z,101425.58
2023-05-14T05:54:49.619Z,101425.92
2023-05-14T05:55:55.012Z,101422.73
2023-05-14T05:57:00.356Z,101422.08
2023-05-14T05:58:05.713Z,101426.63
2023-05-14T05:59:11.077Z,101415.47
2023-05-14T06:00:16.488Z,101418.5
2023-05-14T06:01:21.844Z,101423.77
2023-05-14T06:02:27.362Z,101421.59
2023-05-14T06:03:32.894Z,101422.36
2023-05-14T06:04:38.312Z,101421.78
2023-05-14T06:05:43.854Z,101424.63
2023-05-14T06:06:49.395Z,101420.09
2023-05-14T06:07:54.745Z,101421.44
2023-05-14T06:09:00.131Z,101416.51
2023-05-14T06:10:05.472Z,101413.72
2023-05-14T06:11:10.906Z,101415
2023-05-14T06:12:17.291Z,101414.77
2023-05-14T06:13:22.628Z,101409.91
2023-05-14T06:14:28.241Z,101409.56
2023-05-14T06:15:34.598Z,101412.59
2023-05-14T06:16:40.484Z,101414.12
2023-05-14T06:17:46.116Z,101415.56
2023-05-14T06:18:51.634Z,101415.11
2023-05-14T06:19:57.164Z,101414.56
2023-05-14T06:21:02.529Z,101409.61
2023-05-14T06:22:07.918Z,101412.13
2023-05-14T06:23:13.292Z,101415.67
2023-05-14T06:24:18.644Z,101407.87
2023-05-14T06:25:24.047Z,101414.17
2023-05-14T06:26:29.396Z,101415.16
2023-05-14T06:27:34.735Z,101414.75
2023-05-14T06:28:40.111Z,101407.87
2023-05-14T06:29:45.473Z,101421.39
2023-05-14T06:30:50.835Z,101412.47
2023-05-14T06:31:56.302Z,101415.67
2023-05-14T06:33:01.825Z,101412.89
2023-05-14T06:34:07.277Z,101414.23
2023-05-14T06:35:12.663Z,101414.75
2023-05-14T06:36:18.070Z,101412.06
2023-05-14T06:37:23.604Z,101407.62
2023-05-14T06:38:28.982Z,101399.14
2023-05-14T06:39:34.313Z,101404.35
2023-05-14T06:40:39.647Z,101407.39
2023-05-14T06:41:45.039Z,101401.66
2023-05-14T06:42:50.365Z,101402.15
2023-05-14T06:43:55.715Z,101402.59
2023-05-14T06:45:01.042Z,101405.69
2023-05-14T06:46:06.410Z,101401.16
2023-05-14T06:47:11.749Z,101398.98
2023-05-14T06:48:17.306Z,101399.74
2023-05-14T06:49:22.967Z,101401.09
2023-05-14T06:50:28.326Z,101401.59
2023-05-14T06:51:33.655Z,101399.91
2023-05-14T06:52:38.971Z,101398.05
2023-05-14T06:53:44.293Z,101400.67
2023-05-14T06:54:49.616Z,101393.89
2023-05-14T06:55:54.936Z,101395.72
2023-05-14T06:57:00.267Z,101392.48
2023-05-14T06:58:05.575Z,101391.83
2023-05-14T06:59:10.888Z,101392.76
2023-05-14T07:00:16.262Z,101387.11
2023-05-14T07:01:21.780Z,101384.28
2023-05-14T07:02:27.473Z,101384.09
2023-05-14T07:03:32.939Z,101380.48
2023-05-14T07:04:38.323Z,101381.2
2023-05-14T07:05:43.752Z,101380.38
2023-05-14T07:06:49.115Z,101378.69
2023-05-14T07:07:54.482Z,101377.47
2023-05-14T07:08:59.905Z,101376.23
2023-05-14T07:10:05.244Z,101376.36
2023-05-14T07:11:10.608Z,101375.95
2023-05-14T07:12:15.937Z,101375.19
2023-05-14T07:13:21.289Z,101368.61
2023-05-14T07:14:26.612Z,101368.78
2023-05-14T07:15:31.956Z,101370.13
2023-05-14T07:16:37.395Z,101371.95
2023-05-14T07:17:42.953Z,101371.7
2023-05-14T07:18:48.451Z,101368.56
2023-05-14T07:19:53.807Z,101367.73
2023-05-14T07:20:59.132Z,101366.46
2023-05-14T07:22:04.559Z,101362.5
2023-05-14T07:23:09.961Z,101369.8
2023-05-14T07:24:15.366Z,101362.32
2023-05-14T07:25:20.777Z,101362.45
2023-05-14T07:26:26.098Z,101360.7
2023-05-14T07:27:31.588Z,101357.66
2023-05-14T07:28:36.982Z,101356.05
2023-05-14T07:29:42.327Z,101355.56
2023-05-14T07:30:47.661Z,101356.05
2023-05-14T07:31:53.554Z,101352.53
2023-05-14T07:32:59.061Z,101350.77
2023-05-14T07:34:04.539Z,101348.39
2023-05-14T07:35:09.943Z,101349.39
2023-05-14T07:36:16.321Z,101347.88
2023-05-14T07:37:24.206Z,101348.52
2023-05-14T07:38:29.626Z,101348.28
2023-05-14T07:39:34.954Z,101351.72
2023-05-14T07:40:40.424Z,101352.3
2023-05-14T07:41:45.749Z,101351.95
2023-05-14T07:42:51.105Z,101352.37
2023-05-14T07:43:56.471Z,101346.48
2023-05-14T07:45:01.797Z,101345.02
2023-05-14T07:46:10.175Z,101345.66
2023-05-14T07:47:15.686Z,101345.72
2023-05-14T07:48:21.254Z,101344.31
2023-05-14T07:49:26.675Z,101346.23
2023-05-14T07:50:32.045Z,101342.63
2023-05-14T07:51:40.630Z,101345.14
2023-05-14T07:52:45.987Z,101350.16
2023-05-14T07:53:51.296Z,101343.04
2023-05-14T07:54:56.685Z,101345.66
2023-05-14T07:56:02.096Z,101343.55
2023-05-14T07:57:07.425Z,101342.63
2023-05-14T07:58:12.746Z,101340.94
2023-05-14T07:59:18.115Z,101338.53
2023-05-14T08:00:24.038Z,101341.63
2023-05-14T08:01:29.944Z,101340.42
2023-05-14T08:02:35.421Z,101337.73
2023-05-14T08:03:41.101Z,101334.51
2023-05-14T08:04:46.588Z,101330.48
2023-05-14T08:05:51.975Z,101335.64
2023-05-14T08:06:57.344Z,101335.5
2023-05-14T08:08:02.649Z,101335.06
2023-05-14T08:09:07.962Z,101336.5
2023-05-14T08:10:13.279Z,101331.68
2023-05-14T08:11:18.745Z,101334.87
2023-05-14T08:12:24.189Z,101331.2
2023-05-14T08:13:29.535Z,101331.2
2023-05-14T08:14:34.843Z,101324.91
2023-05-14T08:15:40.223Z,101329.92
2023-05-14T08:16:45.604Z,101328.58
2023-05-14T08:17:51.017Z,101325.2
2023-05-14T08:18:56.491Z,101321.59
2023-05-14T08:20:01.906Z,101320.11
2023-05-14T08:21:07.245Z,101320.11
2023-05-14T08:22:12.573Z,101322.22
2023-05-14T08:23:17.910Z,101324.55
2023-05-14T08:24:23.281Z,101316.44
2023-05-14T08:25:28.625Z,101320.05
2023-05-14T08:26:33.961Z,101322.73
2023-05-14T08:27:39.291Z,101313.34
2023-05-14T08:28:44.645Z,101312.83
2023-05-14T08:29:51.046Z,101314.58
2023-05-14T08:30:56.633Z,101313.59
2023-05-14T08:32:19.738Z,101308.43
2023-05-14T08:33:28.450Z,101319.16
2023-05-14T08:34:33.788Z,101314.79
2023-05-14T08:35:39.105Z,101310.9
2023-05-14T08:36:44.492Z,101304.7
2023-05-14T08:37:49.839Z,101305.63
2023-05-14T08:38:55.220Z,101307.73
2023-05-14T08:40:01.360Z,101313.75
2023-05-14T08:41:06.909Z,101310.55
2023-05-14T08:42:12.284Z,101306.46
2023-05-14T08:43:17.641Z,101308.8
2023-05-14T08:44:22.976Z,101307.05
2023-05-14T08:45:28.321Z,101306.16
2023-05-14T08:46:33.647Z,101311.77
2023-05-14T08:47:40.129Z,101306.77
2023-05-14T08:48:45.679Z,101318.21
2023-05-14T08:49:51.135Z,101311.67
2023-05-14T08:50:56.468Z,101305.33
2023-05-14T08:52:01.758Z,101308.01
2023-05-14T08:53:07.084Z,101310
2023-05-14T08:54:12.406Z,101307.89
2023-05-14T08:55:17.813Z,101305.86
2023-05-14T08:56:23.166Z,101303.82
2023-05-14T08:57:28.482Z,101305.58
2023-05-14T08:58:33.848Z,101305.14
2023-05-14T08:59:39.180Z,101300.38
2023-05-14T09:00:44.495Z,101304.95
2023-05-14T09:01:49.948Z,101300.77
2023-05-14T09:02:55.566Z,101304.72
2023-05-14T09:04:01.079Z,101303.73
2023-05-14T09:05:06.634Z,101304.42
2023-05-14T09:06:11.983Z,101301.33
2023-05-14T09:07:17.307Z,101304.49
2023-05-14T09:08:22.664Z,101303.8
2023-05-14T09:09:27.998Z,101297.53
2023-05-14T09:10:33.354Z,101302.05
2023-05-14T09:11:38.724Z,101305.83
2023-05-14T09:12:44.031Z,101304.08
2023-05-14T09:13:49.401Z,101306.7
2023-05-14T09:14:54.741Z,101310.3
2023-05-14T09:16:00.234Z,101304.42
2023-05-14T09:17:05.596Z,101307.87
2023-05-14T09:18:11.057Z,101300.75
2023-05-14T09:19:16.945Z,101303.94
2023-05-14T09:20:22.916Z,101306.46
2023-05-14T09:21:29.732Z,101299.27
2023-05-14T09:22:37.566Z,101307.97
2023-05-14T09:23:42.872Z,101301.16
2023-05-14T09:24:48.203Z,101306.88
2023-05-14T09:25:53.540Z,101299.92
2023-05-14T09:26:58.901Z,101301.16
2023-05-14T09:28:06.793Z,101296.89
2023-05-14T09:29:12.146Z,101297.44
2023-05-14T09:30:17.516Z,101296.38
2023-05-14T09:31:22.866Z,101298.64
2023-05-14T09:32:28.245Z,101292.34
2023-05-14T09:33:33.581Z,101294.89
2023-05-14T09:34:38.910Z,101288.09
2023-05-14T09:35:44.306Z,101287.61
2023-05-14T09:36:49.687Z,101284.34
2023-05-14T09:37:55.083Z,101287.03
2023-05-14T09:39:00.402Z,101283.86
2023-05-14T09:40:05.715Z,101280.25
2023-05-14T09:41:11.101Z,101277.81
2023-05-14T09:42:16.425Z,101276.47
2023-05-14T09:43:21.753Z,101266.66
2023-05-14T09:44:27.103Z,101274.3
2023-05-14T09:45:32.441Z,101276.47
2023-05-14T09:46:37.800Z,101269.86
2023-05-14T09:47:43.291Z,101269.27
2023-05-14T09:48:48.907Z,101265.73
2023-05-14T09:49:54.266Z,101266.41
2023-05-14T09:50:59.598Z,101262.77
2023-05-14T09:52:06.770Z,101260.48
2023-05-14T09:53:13.202Z,101255.29
2023-05-14T09:54:18.634Z,101257.8
2023-05-14T09:55:23.963Z,101254.64
2023-05-14T09:56:29.303Z,101252.3
2023-05-14T09:57:34.720Z,101253.2
2023-05-14T09:58:40.082Z,101249.69
2023-05-14T09:59:45.465Z,101249.45
2023-05-14T10:00:51.900Z,101246.84
2023-05-14T10:01:57.316Z,101244.7
2023-05-14T10:03:02.731Z,101246.3
2023-05-14T10:04:08.251Z,101239.93
2023-05-14T10:05:14.678Z,101237.25
2023-05-14T10:06:20.017Z,101231.98
2023-05-14T10:07:25.364Z,101231.23
2023-05-14T10:08:30.698Z,101227.64
2023-05-14T10:09:36.038Z,101220.77
2023-05-14T10:10:41.386Z,101221.87
2023-05-14T10:11:46.737Z,101224.69
2023-05-14T10:12:52.087Z,101217.33
2023-05-14T10:13:57.576Z,101217.23
2023-05-14T10:15:02.944Z,101217.98
2023-05-14T10:16:08.306Z,101214.75
2023-05-14T10:17:13.789Z,101209.28
2023-05-14T10:18:19.360Z,101202.02
2023-05-14T10:19:25.003Z,101207.22
2023-05-14T10:20:30.460Z,101210.83
2023-05-14T10:21:35.811Z,101214.27
2023-05-14T10:22:41.171Z,101205.63
2023-05-14T10:23:46.493Z,101206.91
2023-05-14T10:24:51.856Z,101198.36
2023-05-14T10:25:57.255Z,101195.85
2023-05-14T10:27:02.710Z,101197.05
2023-05-14T10:28:08.055Z,101191.34
2023-05-14T10:29:15.629Z,101181.95
2023-05-14T10:30:21.009Z,101189.58
2023-05-14T10:31:26.848Z,101186.08
2023-05-14T10:32:32.383Z,101190.34
2023-05-14T10:33:37.823Z,101185.69
2023-05-14T10:34:43.159Z,101182.28
2023-05-14T10:35:48.533Z,101180.8
2023-05-14T10:36:54.267Z,101180.48
2023-05-14T10:37:59.580Z,101175.28
2023-05-14T10:39:04.924Z,101181.86
2023-05-14T10:40:10.238Z,101176.48
2023-05-14T10:41:15.561Z,101180.27
2023-05-14T10:42:20.886Z,101166.32
2023-05-14T10:43:26.283Z,101169.59
2023-05-14T10:44:31.646Z,101168.84
2023-05-14T10:45:36.967Z,101174.9
2023-05-14T10:46:42.292Z,101169.87
2023-05-14T10:47:47.927Z,101167.87
2023-05-14T10:48:53.313Z,101166.66
2023-05-14T10:49:58.629Z,101164.98
2023-05-14T10:51:04.089Z,101162.05
2023-05-14T10:52:09.473Z,101154.16
2023-05-14T10:53:14.837Z,101156.44
2023-05-14T10:54:20.157Z,101150.2
2023-05-14T10:55:25.479Z,101155.65
2023-05-14T10:56:30.777Z,101149.86
2023-05-14T10:57:36.113Z,101145.91
2023-05-14T10:58:41.433Z,101152.14
2023-05-14T10:59:46.763Z,101146.25
2023-05-14T11:00:52.099Z,101142.42
2023-05-14T11:01:57.515Z,101144.93
2023-05-14T11:03:03.352Z,101140.24
2023-05-14T11:04:09.982Z,101143.03
2023-05-14T11:05:16.108Z,101135.66
2023-05-14T11:06:21.997Z,101135.21
2023-05-14T11:07:27.318Z,101135.14
2023-05-14T11:08:32.706Z,101139.92
2023-05-14T11:09:38.054Z,101136.41
2023-05-14T11:10:43.417Z,101130.18
2023-05-14T11:11:48.746Z,101141.38
2023-05-14T11:12:54.095Z,101131.18
2023-05-14T11:13:59.414Z,101128.84
2023-05-14T11:15:04.814Z,101127.94
2023-05-14T11:16:24.171Z,101125.73
2023-05-14T11:17:29.711Z,101117.53
2023-05-14T11:18:35.401Z,101123.32
2023-05-14T11:19:40.785Z,101130.38
2023-05-14T11:20:46.101Z,101124.25
2023-05-14T11:21:51.546Z,101118.61
2023-05-14T11:22:56.861Z,101120.7
2023-05-14T11:24:02.182Z,101114.84
2023-05-14T11:25:07.510Z,101118.53
2023-05-14T11:26:12.873Z,101123.23
2023-05-14T11:27:18.346Z,101124.98
2023-05-14T11:28:23.738Z,101120.36
2023-05-14T11:29:29.343Z,101124.05
2023-05-14T11:30:34.659Z,101122.78
2023-05-14T11:31:40.055Z,101124.32
2023-05-14T11:32:45.567Z,101114.92
2023-05-14T11:33:51.041Z,101121.22
2023-05-14T11:34:56.375Z,101112.72
2023-05-14T11:36:01.687Z,101119.61
2023-05-14T11:37:07.039Z,101122.78
2023-05-14T11:38:12.370Z,101118.41
2023-05-14T11:39:17.749Z,101120.09
2023-05-14T11:40:23.516Z,101124.78
2023-05-14T11:41:29.285Z,101116.28
2023-05-14T11:42:34.657Z,101119.56
2023-05-14T11:43:39.992Z,101108.14
2023-05-14T11:44:45.362Z,101107.8
2023-05-14T11:45:50.767Z,101108.47
2023-05-14T11:46:56.256Z,101104.63
2023-05-14T11:48:01.739Z,101108.2
2023-05-14T11:49:07.183Z,101106.18
2023-05-14T11:50:12.600Z,101096.78
2023-05-14T11:51:17.943Z,101101.25
2023-05-14T11:52:23.405Z,101098.64
2023-05-14T11:53:28.706Z,101098.3
2023-05-14T11:54:34.121Z,101094.75
2023-05-14T11:55:39.432Z,101097.37
2023-05-14T11:56:44.786Z,101095.69
2023-05-14T11:57:50.151Z,101095.27
2023-05-14T11:58:55.502Z,101093.41
2023-05-14T12:00:00.863Z,101088.97
2023-05-14T12:01:06.199Z,101090.83
2023-05-14T12:02:11.688Z,101092.17
2023-05-14T12:03:17.428Z,101084.11
2023-05-14T12:04:23.238Z,101095.34
2023-05-14T12:05:28.630Z,101087.28
2023-05-14T12:06:33.978Z,101085.94
2023-05-14T12:07:39.315Z,101081.64
2023-05-14T12:08:44.691Z,101088.02
2023-05-14T12:09:51.066Z,101083.09
2023-05-14T12:10:56.420Z,101080.89
2023-05-14T12:12:01.777Z,101077.79
2023-05-14T12:13:07.188Z,101076.78
2023-05-14T12:14:12.543Z,101076.45
2023-05-14T12:15:17.875Z,101076.03
2023-05-14T12:16:23.330Z,101076.38
2023-05-14T12:17:28.894Z,101077.2
2023-05-14T12:18:34.665Z,101072.83
2023-05-14T12:19:40.244Z,101064.41
2023-05-14T12:20:45.578Z,101067.16
2023-05-14T12:21:51.046Z,101064.36
2023-05-14T12:22:56.377Z,101063.84
2023-05-14T12:24:02.794Z,101065.29
2023-05-14T12:25:08.168Z,101062.09
2023-05-14T12:26:13.496Z,101060.33
2023-05-14T12:27:18.809Z,101060.81
2023-05-14T12:28:24.139Z,101057.98
2023-05-14T12:29:29.465Z,101056.23